Time;durP1;ratioP1;P1;durP2;ratioP2;P2;SDS_P1;SDS_P2;PMS_P1;PMS_P2;Temp;Humidity;BMP_temperature;BMP_pressure;BME280_temperature;BME280_humidity;BME280_pressure;Samples;Min_cycle;Max_cycle;Signal;HPM_P1;HPM_P2
2022/01/12 00:01:14;;;;;;;482.45;44.03;;;7.30;99.90;;;;;;5037328;28;20040;-84
2022/01/12 00:03:42;;;;;;;403.90;41.67;;;9.50;99.90;;;;;;5020797;28;20055;-84
2022/01/12 00:06:07;;;;;;;327.75;39.85;;;8.80;99.90;;;;;;5037308;28;20401;-83
2022/01/12 00:08:33;;;;;;;395.60;40.50;;;7.50;99.90;;;;;;5035989;28;20044;-84
2022/01/12 00:11:01;;;;;;;332.45;38.85;;;7.20;99.90;;;;;;5023571;28;20056;-84
2022/01/12 00:13:27;;;;;;;252.27;34.58;;;9.20;99.90;;;;;;5017471;28;20049;-84
2022/01/12 00:15:53;;;;;;;235.02;34.70;;;10.30;99.90;;;;;;5000917;28;20052;-85
2022/01/12 00:18:20;;;;;;;297.67;35.55;;;10.90;99.90;;;;;;5017482;28;20056;-84
2022/01/12 00:20:46;;;;;;;212.00;31.23;;;10.90;99.90;;;;;;5017319;28;20056;-84
2022/01/12 00:23:13;;;;;;;220.75;31.00;;;9.40;99.90;;;;;;5041946;28;20045;-84
2022/01/12 00:25:58;;;;;;;145.75;26.42;;;7.70;99.90;;;;;;5054540;28;20041;-84
2022/01/12 00:33:55;;;;;;;1999.90;235.55;;;7.90;99.90;;;;;;5036860;28;20057;-84
2022/01/12 00:36:21;;;;;;;140.10;22.27;;;8.80;99.90;;;;;;5036745;28;20079;-84
2022/01/12 00:38:47;;;;;;;128.40;23.95;;;8.80;99.90;;;;;;5033284;28;20080;-84
2022/01/12 00:41:17;;;;;;;167.55;26.25;;;8.50;99.90;;;;;;5016680;28;20045;-83
2022/01/12 00:43:45;;;;;;;166.77;27.30;;;8.90;99.90;;;;;;5020033;28;20052;-84
2022/01/12 00:46:13;;;;;;;105.15;21.83;;;9.50;99.90;;;;;;5020097;28;20041;-84
2022/01/12 00:48:38;;;;;;;155.02;24.25;;;7.50;99.90;;;;;;5020190;28;20045;-84
2022/01/12 00:51:04;;;;;;;132.10;20.90;;;11.40;99.90;;;;;;5018460;28;20053;-84
2022/01/12 00:53:30;;;;;;;89.65;15.65;;;10.00;99.90;;;;;;5036738;28;20057;-84
2022/01/12 00:55:56;;;;;;;88.88;13.85;;;9.60;99.90;;;;;;5036150;28;20080;-84
2022/01/12 00:58:22;;;;;;;84.88;14.40;;;9.40;99.90;;;;;;5036622;28;20045;-84
2022/01/12 01:00:48;;;;;;;56.38;11.10;;;8.90;99.90;;;;;;5036008;28;20485;-84
2022/01/12 01:03:14;;;;;;;90.65;14.73;;;7.90;99.90;;;;;;5019718;28;20076;-84
2022/01/12 01:05:40;;;;;;;45.80;9.32;;;7.80;99.90;;;;;;5020007;28;20088;-84
2022/01/12 01:08:06;;;;;;;42.78;8.73;;;9.60;99.90;;;;;;5035944;28;20083;-84
2022/01/12 01:10:45;;;;;;;27.92;6.10;;;11.50;99.90;;;;;;5036113;28;20409;-84
2022/01/12 01:13:13;;;;;;;39.78;7.38;;;10.40;99.90;;;;;;5035749;28;20033;-84
2022/01/12 01:26:26;;;;;;;25.35;5.57;;;7.70;99.90;;;;;;5032295;28;20072;-84
2022/01/12 01:28:52;;;;;;;18.48;5.75;;;9.10;99.90;;;;;;5040770;28;20041;-85
2022/01/12 01:31:19;;;;;;;27.13;4.43;;;8.00;99.90;;;;;;5036020;28;20495;-84
2022/01/12 01:33:45;;;;;;;22.42;4.18;;;9.00;99.90;;;;;;5035540;28;20044;-84
2022/01/12 01:36:12;;;;;;;20.50;4.43;;;11.70;99.90;;;;;;5053796;28;20055;-84
2022/01/12 01:38:39;;;;;;;17.83;3.85;;;10.90;99.90;;;;;;5035719;28;20460;-84
2022/01/12 01:41:05;;;;;;;24.02;3.97;;;10.90;99.90;;;;;;5015815;28;20038;-84
2022/01/12 01:54:36;;;;;;;19.65;4.47;;;7.50;99.90;;;;;;5015823;28;20136;-84
2022/01/12 01:57:02;;;;;;;25.10;4.72;;;8.90;99.90;;;;;;4999297;28;20122;-84
2022/01/12 01:59:28;;;;;;;21.70;4.55;;;7.50;99.90;;;;;;5015624;28;20180;-84
2022/01/12 02:01:55;;;;;;;25.52;4.55;;;9.90;99.90;;;;;;5032996;28;20037;-84
2022/01/12 02:04:20;;;;;;;22.05;3.88;;;7.20;99.90;;;;;;5033609;28;20038;-84
2022/01/12 02:06:46;;;;;;;17.05;4.00;;;9.70;99.90;;;;;;5032316;28;20053;-84
2022/01/12 02:09:11;;;;;;;29.20;4.28;;;9.90;99.90;;;;;;5015797;28;20065;-84
2022/01/12 02:11:39;;;;;;;23.90;5.00;;;6.80;99.90;;;;;;5015653;28;20049;-84
2022/01/12 02:14:04;;;;;;;24.13;4.40;;;6.80;99.90;;;;;;5015507;28;20107;-85
2022/01/12 02:16:39;;;;;;;16.38;4.53;;;6.90;99.90;;;;;;5015505;28;20045;-84
2022/01/12 02:19:29;;;;;;;25.05;4.80;;;6.70;99.90;;;;;;5016170;28;20062;-84
2022/01/12 02:36:07;;;;;;;467.38;10.90;;;8.20;99.90;;;;;;5015460;28;20053;-84
2022/01/12 02:41:16;;;;;;;172.00;4.95;;;7.90;99.90;;;;;;5015371;28;20064;-84
2022/01/12 02:50:38;;;;;;;87.38;3.75;;;6.90;99.90;;;;;;5015329;28;20062;-84
2022/01/12 02:55:40;;;;;;;13.75;4.20;;;5.10;99.90;;;;;;4999568;28;20065;-84
2022/01/12 02:58:05;;;;;;;19.83;4.40;;;8.50;99.90;;;;;;5016838;28;20498;-84
2022/01/12 03:00:55;;;;;;;27.45;4.65;;;7.20;99.90;;;;;;5015473;28;20046;-84
2022/01/12 03:03:22;;;;;;;19.73;4.38;;;8.70;99.90;;;;;;4998955;28;20197;-85
2022/01/12 03:05:57;;;;;;;18.92;4.82;;;9.60;99.90;;;;;;4986857;28;20041;-84
2022/01/12 03:08:25;;;;;;;36.90;5.30;;;7.80;99.90;;;;;;4998954;28;20050;-84
2022/01/12 03:10:51;;;;;;;22.17;5.00;;;8.20;99.90;;;;;;4998909;28;20038;-84
2022/01/12 03:13:17;;;;;;;20.90;5.53;;;5.20;99.90;;;;;;5015649;28;20045;-85
2022/01/12 03:15:42;;;;;;;31.67;5.45;;;5.50;99.90;;;;;;5015158;28;20041;-85
2022/01/12 03:18:08;;;;;;;21.00;5.10;;;8.60;99.90;;;;;;4982623;28;20046;-84
2022/01/12 03:20:34;;;;;;;31.17;5.07;;;5.90;99.90;;;;;;4998991;28;20073;-85
2022/01/12 03:23:00;;;;;;;20.15;5.03;;;7.20;99.90;;;;;;4999090;28;20081;-84
2022/01/12 03:25:26;;;;;;;20.27;4.40;;;9.60;99.90;;;;;;4998702;28;20046;-85
2022/01/12 03:27:56;;;;;;;20.60;4.68;;;8.50;99.90;;;;;;5015732;28;20116;-85
2022/01/12 03:30:22;;;;;;;71.43;7.32;;;9.30;99.90;;;;;;5016057;28;20041;-84
2022/01/12 03:33:02;;;;;;;16.30;4.53;;;7.20;99.90;;;;;;5014140;28;20561;-85
2022/01/12 03:35:47;;;;;;;14.32;4.40;;;9.20;99.90;;;;;;5001332;28;20124;-85
2022/01/12 03:38:20;;;;;;;19.40;4.55;;;7.90;99.90;;;;;;5017798;28;20042;-85
2022/01/12 03:40:47;;;;;;;26.95;4.93;;;9.10;99.90;;;;;;5001790;28;20045;-85
2022/01/12 03:43:13;;;;;;;34.97;5.63;;;9.40;99.90;;;;;;5001603;28;20037;-85
2022/01/12 03:45:39;;;;;;;31.77;5.53;;;8.50;99.90;;;;;;5017905;28;20047;-85
2022/01/12 03:48:05;;;;;;;26.90;5.10;;;6.30;99.90;;;;;;5001570;28;20104;-85
2022/01/12 03:50:30;;;;;;;23.88;4.88;;;5.80;99.90;;;;;;5001843;28;20140;-85
2022/01/12 03:52:59;;;;;;;49.17;5.57;;;9.60;99.90;;;;;;5034218;28;20136;-85
2022/01/12 03:55:25;;;;;;;45.95;5.35;;;8.40;99.90;;;;;;5018793;28;20143;-84
2022/01/12 03:57:50;;;;;;;37.10;4.85;;;8.90;99.90;;;;;;5037780;28;20045;-85
2022/01/12 04:00:16;;;;;;;49.00;5.38;;;9.50;99.90;;;;;;5037283;28;20041;-85
2022/01/12 04:02:42;;;;;;;39.97;5.32;;;9.60;99.90;;;;;;5055130;28;20183;-84
2022/01/12 04:05:23;;;;;;;31.77;4.88;;;8.20;99.90;;;;;;5037735;28;20056;-85
2022/01/12 04:10:33;;;;;;;30.13;4.20;;;9.00;99.90;;;;;;5037426;28;20052;-84
2022/01/12 04:13:00;;;;;;;35.58;4.32;;;7.70;99.90;;;;;;5037399;28;20401;-85
2022/01/12 04:15:26;;;;;;;26.45;5.10;;;8.30;99.90;;;;;;5020995;28;20409;-85
2022/01/12 04:17:51;;;;;;;35.70;4.45;;;5.80;99.90;;;;;;5020578;28;20076;-85
2022/01/12 04:20:17;;;;;;;30.20;4.45;;;9.20;99.90;;;;;;5020547;28;20044;-85
2022/01/12 04:25:27;;;;;;;33.95;4.28;;;8.40;99.90;;;;;;5055024;28;20126;-84
2022/01/12 04:27:53;;;;;;;36.38;4.85;;;8.70;99.90;;;;;;5020542;28;20055;-85
2022/01/12 04:30:19;;;;;;;39.72;5.30;;;7.80;99.90;;;;;;5036761;28;20400;-85
2022/01/12 04:32:45;;;;;;;32.58;5.18;;;5.40;99.90;;;;;;5036935;28;20056;-85
2022/01/12 04:35:13;;;;;;;50.50;5.38;;;8.00;99.90;;;;;;5036890;28;20053;-85
2022/01/12 04:37:39;;;;;;;38.33;5.47;;;5.30;99.90;;;;;;5054874;28;20056;-85
2022/01/12 04:40:05;;;;;;;99.60;7.03;;;7.90;99.90;;;;;;5036190;28;20052;-85
2022/01/12 04:42:35;;;;;;;202.88;10.82;;;5.40;99.90;;;;;;5052747;28;20404;-85
2022/01/12 04:45:16;;;;;;;78.57;6.68;;;5.30;99.90;;;;;;5019867;28;20669;-85
2022/01/12 04:50:22;;;;;;;32.40;5.00;;;5.70;99.90;;;;;;5036622;28;20049;-85
2022/01/12 04:52:48;;;;;;;80.97;6.13;;;5.30;99.90;;;;;;5020447;28;20059;-85
2022/01/12 04:55:14;;;;;;;42.45;5.57;;;7.30;99.90;;;;;;5035884;28;20479;-85
2022/01/12 04:57:39;;;;;;;33.78;4.55;;;8.50;99.90;;;;;;5036529;28;20064;-84
2022/01/12 05:00:15;;;;;;;45.78;5.40;;;7.60;99.90;;;;;;5036272;28;20053;-84
2022/01/12 05:08:21;;;;;;;87.78;5.20;;;7.30;99.90;;;;;;5036246;28;20409;-85
2022/01/12 05:13:33;;;;;;;150.85;9.75;;;6.70;99.90;;;;;;5016465;28;20072;-85
2022/01/12 05:16:00;;;;;;;702.50;32.92;;;4.50;99.90;;;;;;4999536;28;20052;-85
2022/01/12 05:18:28;;;;;;;99.20;5.00;;;7.30;99.90;;;;;;4999772;28;20056;-85
2022/01/12 05:20:53;;;;;;;127.78;6.95;;;6.30;99.90;;;;;;5008994;28;20045;-85
2022/01/12 05:23:19;;;;;;;162.13;7.10;;;7.70;99.90;;;;;;5035969;28;20405;-85
2022/01/12 05:25:52;;;;;;;129.18;8.57;;;6.40;99.90;;;;;;5019510;28;20106;-85
2022/01/12 05:28:19;;;;;;;71.63;5.38;;;8.20;99.90;;;;;;5035796;28;20091;-85
2022/01/12 05:30:45;;;;;;;115.55;6.43;;;9.10;99.90;;;;;;5036041;28;20056;-85
2022/01/12 05:33:11;;;;;;;265.88;9.65;;;5.40;99.90;;;;;;5035605;28;20055;-85
2022/01/12 05:35:37;;;;;;;330.45;9.90;;;8.80;99.90;;;;;;5035834;28;20459;-85
2022/01/12 05:38:08;;;;;;;139.95;5.68;;;7.10;99.90;;;;;;5019546;28;20055;-85
2022/01/12 05:40:35;;;;;;;210.68;6.30;;;4.70;99.90;;;;;;5035842;28;20584;-85
2022/01/12 05:43:01;;;;;;;99.47;6.18;;;8.90;99.90;;;;;;5019027;28;20120;-85
2022/01/12 05:45:29;;;;;;;233.70;8.07;;;5.00;99.90;;;;;;5035448;28;20501;-85
2022/01/12 05:50:22;;;;;;;246.68;7.25;;;8.80;99.90;;;;;;5035154;28;20464;-85
2022/01/12 05:52:48;;;;;;;207.52;6.68;;;9.00;99.90;;;;;;5019023;28;20416;-85
2022/01/12 05:55:14;;;;;;;63.92;4.43;;;8.10;99.90;;;;;;5033059;28;20057;-84
2022/01/12 05:57:41;;;;;;;318.73;7.80;;;4.70;99.90;;;;;;5018663;28;20045;-85
2022/01/12 06:00:10;;;;;;;434.48;9.95;;;4.00;99.90;;;;;;5018494;28;20080;-85
2022/01/12 06:02:39;;;;;;;354.70;10.07;;;3.30;99.90;;;;;;5029918;28;20124;-85
2022/01/12 06:05:05;;;;;;;218.25;5.53;;;2.90;99.90;;;;;;5034631;28;20052;-85
2022/01/12 06:07:34;;;;;;;293.45;7.82;;;3.00;99.90;;;;;;5018897;28;20076;-85
2022/01/12 06:09:59;;;;;;;339.17;7.00;;;6.30;99.90;;;;;;5035087;28;20049;-86
2022/01/12 06:12:25;;;;;;;201.60;5.18;;;5.10;99.90;;;;;;5034918;28;20128;-85
2022/01/12 06:14:51;;;;;;;225.98;4.65;;;2.50;99.90;;;;;;5018828;28;20049;-85
2022/01/12 06:17:17;;;;;;;194.80;4.20;;;6.50;99.90;;;;;;5024354;28;20041;-85
2022/01/12 06:19:43;;;;;;;185.27;4.43;;;3.20;99.90;;;;;;5015410;28;20512;-85
2022/01/12 06:22:08;;;;;;;172.40;4.03;;;2.30;99.90;;;;;;5015182;28;20486;-85
2022/01/12 06:24:34;;;;;;;203.43;4.20;;;6.50;99.90;;;;;;4998964;28;20220;-85
2022/01/12 06:27:01;;;;;;;283.08;5.47;;;2.00;99.90;;;;;;5025846;28;20041;-85
2022/01/12 06:29:39;;;;;;;265.40;5.10;;;1.80;99.90;;;;;;5022288;28;20047;-85
2022/01/12 06:32:06;;;;;;;241.95;4.53;;;6.00;99.90;;;;;;5022328;28;20040;-85
2022/01/12 06:34:32;;;;;;;249.27;5.65;;;2.40;99.90;;;;;;5022491;28;20768;-85
2022/01/12 06:36:58;;;;;;;169.43;4.25;;;2.50;99.90;;;;;;5005258;28;20082;-85
2022/01/12 06:39:25;;;;;;;118.95;3.47;;;2.50;99.90;;;;;;5019114;28;20042;-85
2022/01/12 06:41:53;;;;;;;235.52;4.72;;;2.10;99.90;;;;;;5003073;28;20068;-85
2022/01/12 06:44:21;;;;;;;251.10;4.55;;;2.20;99.90;;;;;;5018669;28;20961;-85
2022/01/12 06:46:48;;;;;;;379.40;6.75;;;5.00;99.90;;;;;;5002273;28;20038;-85
2022/01/12 06:49:16;;;;;;;268.42;5.43;;;2.10;99.90;;;;;;5002412;28;20417;-85
2022/01/12 06:51:43;;;;;;;265.52;5.72;;;2.50;99.90;;;;;;5002283;28;20041;-85
2022/01/12 06:54:10;;;;;;;267.65;5.05;;;2.40;99.90;;;;;;5002126;28;20052;-86
2022/01/12 06:56:36;;;;;;;306.45;5.50;;;2.40;99.90;;;;;;5012654;28;20056;-85
2022/01/12 06:59:04;;;;;;;124.63;4.15;;;2.10;99.90;;;;;;5038768;28;20052;-85
2022/01/12 07:01:33;;;;;;;325.13;6.88;;;;;;;;;;5022443;28;20037;-85
2022/01/12 07:03:59;;;;;;;516.78;10.73;;;2.50;99.90;;;;;;5021864;28;20049;-85
2022/01/12 07:06:25;;;;;;;441.10;11.02;;;2.60;99.90;;;;;;5022517;28;20060;-85
2022/01/12 07:08:52;;;;;;;413.58;9.80;;;3.60;99.90;;;;;;5021842;28;20041;-86
2022/01/12 07:11:18;;;;;;;446.80;12.35;;;2.50;99.90;;;;;;5021718;28;20060;-86
2022/01/12 07:13:44;;;;;;;366.60;8.95;;;;;;;;;;5038473;28;20045;-83
2022/01/12 07:16:11;;;;;;;335.88;10.00;;;;;;;;;;5021563;28;20055;-83
2022/01/12 07:18:38;;;;;;;328.83;8.02;;;2.10;99.90;;;;;;5037375;28;20102;-83
2022/01/12 07:21:04;;;;;;;269.23;6.47;;;2.20;99.90;;;;;;5028065;28;20095;-81
2022/01/12 07:23:33;;;;;;;418.42;10.32;;;;;;;;;;5036836;28;20486;-82
2022/01/12 07:25:59;;;;;;;338.83;11.88;;;1.90;99.90;;;;;;5020848;28;20654;-82
2022/01/12 07:28:25;;;;;;;243.90;6.13;;;1.90;99.90;;;;;;5020469;28;20536;-82
2022/01/12 07:30:52;;;;;;;417.65;8.95;;;2.10;99.90;;;;;;5017483;28;20045;-81
2022/01/12 07:33:18;;;;;;;295.27;6.75;;;2.00;99.90;;;;;;5019827;28;20095;-83
2022/01/12 07:35:44;;;;;;;302.83;8.15;;;2.30;99.90;;;;;;5020988;28;20041;-84
2022/01/12 07:38:10;;;;;;;127.25;3.80;;;;;;;;;;5019511;28;20129;-84
2022/01/12 07:40:36;;;;;;;151.93;5.00;;;2.50;99.90;;;;;;5037154;28;20052;-86
2022/01/12 07:43:03;;;;;;;219.23;4.20;;;4.20;99.90;;;;;;5036640;28;20110;-83
2022/01/12 07:45:29;;;;;;;146.27;4.15;;;3.70;99.90;;;;;;5036772;28;20077;-82
2022/01/12 07:47:55;;;;;;;207.80;5.55;;;4.90;99.90;;;;;;5036971;28;20378;-84
2022/01/12 07:50:21;;;;;;;164.95;4.18;;;;;;;;;;5018868;28;20049;-82
2022/01/12 07:52:48;;;;;;;165.43;4.70;;;1.70;99.90;;;;;;5036379;28;20041;-81
2022/01/12 07:55:14;;;;;;;86.72;3.38;;;2.70;99.90;;;;;;5035731;28;20060;-83
2022/01/12 07:57:42;;;;;;;111.47;3.28;;;1.80;99.90;;;;;;5036767;28;20041;-82
2022/01/12 08:00:11;;;;;;;71.00;5.13;;;1.50;99.90;;;;;;5036414;28;20500;-82
2022/01/12 08:02:37;;;;;;;64.13;2.10;;;1.70;99.90;;;;;;5038946;28;20421;-84
2022/01/12 08:05:03;;;;;;;59.40;2.38;;;;;;;;;;5032694;28;20045;-84
2022/01/12 08:07:35;;;;;;;43.10;2.05;;;1.90;99.90;;;;;;5017465;28;20439;-83
2022/01/12 08:10:03;;;;;;;25.02;1.83;;;1.90;99.90;;;;;;5035219;28;20053;-81
2022/01/12 08:12:28;;;;;;;31.20;1.70;;;1.50;99.90;;;;;;5036297;28;20045;-84
2022/01/12 08:14:54;;;;;;;1537.68;82.35;;;1.40;99.90;;;;;;5052445;28;20044;-83
2022/01/12 08:17:20;;;;;;;72.05;2.50;;;3.10;99.90;;;;;;5036310;28;20045;-80
2022/01/12 08:19:45;;;;;;;68.75;2.40;;;1.90;99.90;;;;;;5035550;28;20485;-85
2022/01/12 08:22:11;;;;;;;60.25;2.75;;;1.80;99.90;;;;;;5036104;28;20409;-83
2022/01/12 08:24:37;;;;;;;163.13;4.85;;;4.80;99.90;;;;;;5035986;28;20119;-84
2022/01/12 08:27:02;;;;;;;154.95;4.68;;;1.50;99.90;;;;;;5034299;28;20099;-85
2022/01/12 08:29:29;;;;;;;118.10;4.65;;;1.70;99.90;;;;;;5028852;28;20131;-84
2022/01/12 08:31:58;;;;;;;160.82;6.55;;;1.40;99.90;;;;;;5034605;28;20045;-84
2022/01/12 08:34:23;;;;;;;168.35;4.97;;;1.40;99.90;;;;;;5035539;28;20049;-84
2022/01/12 08:36:50;;;;;;;153.50;5.80;;;;;;;;;;5052229;28;20048;-85
2022/01/12 08:39:16;;;;;;;70.47;3.47;;;1.50;99.90;;;;;;5022686;28;20124;-84
2022/01/12 08:41:42;;;;;;;174.63;4.82;;;;;;;;;;5037037;28;20124;-83
2022/01/12 08:44:08;;;;;;;78.13;3.00;;;2.00;99.90;;;;;;5034119;28;20041;-84
2022/01/12 08:46:35;;;;;;;61.92;2.33;;;2.20;99.90;;;;;;5035525;28;20048;-84
2022/01/12 08:49:01;;;;;;;47.10;2.95;;;2.50;99.90;;;;;;5034077;28;20106;-85
2022/01/12 08:51:26;;;;;;;69.15;3.75;;;5.70;99.90;;;;;;5035756;28;20053;-85
2022/01/12 08:53:52;;;;;;;94.60;3.70;;;6.60;99.90;;;;;;5035243;28;20044;-86
2022/01/12 08:56:21;;;;;;;88.40;2.90;;;2.50;99.90;;;;;;5018159;28;20056;-85
2022/01/12 08:58:48;;;;;;;18.20;2.53;;;2.20;99.90;;;;;;5035484;28;20084;-85
2022/01/12 09:01:14;;;;;;;67.57;6.18;;;6.10;99.90;;;;;;5033439;28;20172;-84
2022/01/12 09:03:40;;;;;;;34.72;1.92;;;2.60;99.90;;;;;;5036039;28;20072;-84
2022/01/12 09:06:07;;;;;;;51.88;4.22;;;2.60;99.90;;;;;;5035727;28;20047;-84
2022/01/12 09:08:34;;;;;;;62.40;3.60;;;6.90;99.90;;;;;;5035812;28;20055;-84
2022/01/12 09:11:01;;;;;;;70.38;3.53;;;4.50;99.90;;;;;;5016888;28;20044;-84
2022/01/12 09:13:27;;;;;;;131.43;4.00;;;6.20;99.90;;;;;;5031894;28;20056;-84
2022/01/12 09:15:52;;;;;;;203.00;6.55;;;3.00;99.90;;;;;;5034971;28;20120;-83
2022/01/12 09:18:18;;;;;;;33.78;2.70;;;5.10;99.90;;;;;;5034491;28;20528;-83
2022/01/12 09:20:45;;;;;;;42.38;2.80;;;6.10;99.90;;;;;;5034175;28;20041;-83
2022/01/12 09:23:11;;;;;;;23.38;2.60;;;3.00;99.90;;;;;;5034993;28;20127;-84
2022/01/12 09:25:39;;;;;;;39.72;3.25;;;3.60;99.90;;;;;;5035429;28;20202;-84
2022/01/12 09:28:06;;;;;;;26.38;3.00;;;6.40;99.90;;;;;;5035377;28;20041;-84
2022/01/12 09:30:32;;;;;;;73.47;5.22;;;3.70;99.90;;;;;;5034089;28;20045;-85
2022/01/12 09:32:59;;;;;;;80.78;3.83;;;3.60;99.90;;;;;;5034520;28;20401;-87
2022/01/12 09:35:26;;;;;;;27.80;3.58;;;6.80;99.90;;;;;;5034874;28;20053;-84
2022/01/12 09:37:52;;;;;;;17.98;4.13;;;3.90;99.90;;;;;;5034865;28;20048;-84
2022/01/12 09:40:18;;;;;;;26.67;4.90;;;4.40;99.90;;;;;;5034797;28;20048;-84
2022/01/12 09:42:47;;;;;;;70.65;6.75;;;4.80;99.90;;;;;;5035178;28;20048;-86
2022/01/12 09:45:15;;;;;;;31.65;4.47;;;4.80;99.90;;;;;;5034841;28;20045;-85
2022/01/12 09:47:44;;;;;;;26.08;4.45;;;5.00;99.90;;;;;;5034774;28;20524;-85
2022/01/12 09:50:12;;;;;;;43.15;5.80;;;5.30;99.90;;;;;;5034311;28;20050;-85
2022/01/12 09:52:38;;;;;;;31.42;4.68;;;9.50;99.90;;;;;;5034478;28;20053;-85
2022/01/12 09:55:04;;;;;;;39.95;4.82;;;3.10;99.90;;;;;;5035022;28;20103;-81
2022/01/12 09:57:30;;;;;;;41.53;5.68;;;5.80;99.90;;;;;;5034607;28;20075;-82
2022/01/12 09:59:56;;;;;;;36.58;6.20;;;5.40;99.90;;;;;;5017924;28;20124;-81
2022/01/12 10:02:21;;;;;;;33.75;5.63;;;8.50;99.90;;;;;;5033463;28;20049;-82
2022/01/12 10:04:58;;;;;;;38.03;6.30;;;5.60;99.90;;;;;;5031115;28;20379;-83
2022/01/12 10:07:28;;;;;;;30.77;5.45;;;6.40;99.90;;;;;;5034136;28;20092;-82
2022/01/12 10:09:59;;;;;;;56.80;6.82;;;10.40;99.90;;;;;;5043069;28;20060;-84
2022/01/12 10:12:27;;;;;;;42.20;6.53;;;9.80;99.90;;;;;;5034370;28;20049;-81
2022/01/12 10:14:55;;;;;;;40.78;6.47;;;8.00;99.90;;;;;;5017801;28;20154;-82
2022/01/12 10:17:38;;;;;;;47.60;7.25;;;10.50;99.90;;;;;;5036462;28;20052;-83
2022/01/12 10:20:09;;;;;;;33.65;6.03;;;6.60;99.90;;;;;;5030640;28;20037;-83
2022/01/12 10:22:35;;;;;;;48.30;6.57;;;6.60;99.90;;;;;;5033425;28;20056;-83
2022/01/12 10:25:12;;;;;;;31.90;6.53;;;6.90;99.90;;;;;;5034158;28;20052;-83
2022/01/12 10:27:39;;;;;;;40.03;6.80;;;7.10;99.90;;;;;;5050686;28;20045;-82
2022/01/12 10:30:05;;;;;;;51.00;7.18;;;6.80;99.90;;;;;;5034627;28;20045;-83
2022/01/12 10:32:31;;;;;;;48.03;6.45;;;7.30;99.90;;;;;;5018529;28;20420;-83
2022/01/12 10:34:59;;;;;;;53.00;5.93;;;7.50;99.90;;;;;;5034443;28;20056;-83
2022/01/12 10:37:27;;;;;;;42.08;6.18;;;8.80;99.90;;;;;;5034094;28;20060;-84
2022/01/12 10:39:55;;;;;;;33.72;5.68;;;7.60;99.90;;;;;;5034827;28;20409;-84
2022/01/12 10:42:27;;;;;;;42.67;6.05;;;7.50;99.90;;;;;;5034353;28;20056;-83
2022/01/12 10:44:57;;;;;;;51.83;6.88;;;8.00;99.90;;;;;;5013608;28;20029;-84
2022/01/12 10:47:27;;;;;;;39.90;5.47;;;7.70;99.90;;;;;;5031659;28;20045;-82
2022/01/12 10:49:53;;;;;;;40.15;5.90;;;7.40;99.90;;;;;;5033922;28;20120;-83
2022/01/12 10:52:20;;;;;;;40.20;5.30;;;7.90;99.90;;;;;;5005513;28;20054;-83
2022/01/12 10:54:54;;;;;;;41.97;6.18;;;8.00;99.90;;;;;;5027596;28;20048;-83
2022/01/12 10:57:23;;;;;;;39.08;5.60;;;8.10;99.90;;;;;;5034200;28;20049;-83
2022/01/12 11:00:05;;;;;;;43.30;6.35;;;7.70;99.90;;;;;;5033364;28;20041;-82
2022/01/12 11:02:32;;;;;;;38.30;6.95;;;8.40;99.90;;;;;;5032934;28;20044;-85
2022/01/12 11:04:59;;;;;;;42.85;6.28;;;8.40;99.90;;;;;;5034220;28;20430;-85
2022/01/12 11:07:26;;;;;;;44.33;6.10;;;11.70;99.90;;;;;;5034188;28;20049;-83
2022/01/12 11:09:56;;;;;;;36.70;6.53;;;8.70;99.90;;;;;;5033408;28;20041;-83
2022/01/12 11:12:22;;;;;;;39.63;6.40;;;9.90;99.90;;;;;;5033225;28;20048;-85
2022/01/12 11:14:49;;;;;;;44.70;5.85;;;8.80;99.90;;;;;;5031981;28;20080;-82
2022/01/12 11:17:16;;;;;;;41.53;6.30;;;8.50;99.90;;;;;;5037161;28;20037;-84
2022/01/12 11:19:54;;;;;;;36.03;6.13;;;9.20;99.90;;;;;;5037160;28;20041;-84
2022/01/12 11:22:56;;;;;;;37.75;6.68;;;9.20;99.90;;;;;;5026936;28;20060;-83
2022/01/12 11:25:21;;;;;;;40.97;6.75;;;9.40;99.90;;;;;;5037055;28;20051;-85
2022/01/12 11:27:51;;;;;;;34.92;6.95;;;9.40;99.90;;;;;;5019620;28;20128;-84
2022/01/12 11:30:20;;;;;;;53.22;6.53;;;9.10;99.90;;;;;;5034678;28;20045;-83
2022/01/12 11:32:55;;;;;;;41.58;5.78;;;9.30;99.90;;;;;;5048322;28;20048;-83
2022/01/12 11:35:27;;;;;;;34.97;5.55;;;9.80;99.90;;;;;;5037238;28;20051;-83
2022/01/12 11:37:59;;;;;;;40.63;6.70;;;9.20;99.90;;;;;;5036876;28;20049;-83
2022/01/12 11:40:34;;;;;;;31.17;4.78;;;10.20;99.90;;;;;;5037518;28;20056;-83
2022/01/12 11:43:00;;;;;;;30.65;5.63;;;9.40;99.90;;;;;;5037441;28;20053;-83
2022/01/12 11:45:29;;;;;;;38.83;5.55;;;11.20;99.90;;;;;;5037738;28;20186;-82
2022/01/12 11:47:57;;;;;;;24.85;4.57;;;6.10;99.90;;;;;;5037259;28;20416;-83
2022/01/12 11:50:23;;;;;;;32.55;5.50;;;11.30;99.90;;;;;;5028282;28;20041;-83
2022/01/12 11:52:49;;;;;;;30.55;5.03;;;9.50;99.90;;;;;;5037142;28;20071;-83
2022/01/12 11:55:18;;;;;;;32.30;4.97;;;9.20;99.90;;;;;;5053665;28;20041;-83
2022/01/12 11:57:49;;;;;;;29.50;5.28;;;9.20;99.90;;;;;;5017050;28;20041;-83
2022/01/12 12:00:19;;;;;;;23.48;4.80;;;9.80;99.90;;;;;;5012456;28;20045;-83
2022/01/12 12:02:49;;;;;;;25.63;4.68;;;9.10;99.90;;;;;;5016396;28;20154;-84
2022/01/12 12:05:21;;;;;;;38.50;5.18;;;9.20;99.90;;;;;;5029207;28;20046;-82
2022/01/12 12:07:53;;;;;;;35.78;5.38;;;9.10;99.90;;;;;;5014083;28;20124;-83
2022/01/12 12:10:21;;;;;;;28.13;6.03;;;9.10;99.90;;;;;;5016937;28;20433;-84
2022/01/12 12:12:49;;;;;;;24.00;5.45;;;11.60;99.90;;;;;;5020433;28;20032;-82
2022/01/12 12:15:15;;;;;;;29.45;4.97;;;9.10;99.90;;;;;;5020360;28;20049;-83
2022/01/12 12:17:42;;;;;;;23.73;5.00;;;9.50;99.90;;;;;;5018816;28;20046;-82
2022/01/12 12:20:11;;;;;;;33.58;5.22;;;9.70;99.90;;;;;;5028915;28;20053;-83
2022/01/12 12:22:40;;;;;;;38.75;5.10;;;9.40;99.90;;;;;;5016186;28;20507;-82
2022/01/12 12:25:09;;;;;;;24.42;4.80;;;9.10;99.90;;;;;;5014140;28;20159;-83
2022/01/12 12:27:37;;;;;;;32.47;5.47;;;9.20;99.90;;;;;;5014023;28;20132;-83
2022/01/12 12:30:06;;;;;;;37.45;6.25;;;11.10;99.90;;;;;;5008843;28;20064;-83
2022/01/12 12:32:37;;;;;;;34.80;5.90;;;9.10;99.90;;;;;;5000999;28;20107;-84
2022/01/12 12:35:07;;;;;;;22.30;5.22;;;9.10;99.90;;;;;;4998557;28;20056;-83
2022/01/12 12:37:36;;;;;;;26.88;5.00;;;9.20;99.90;;;;;;5015984;28;20055;-84
2022/01/12 12:40:13;;;;;;;29.65;5.82;;;9.10;99.90;;;;;;5015473;28;20045;-83
2022/01/12 12:42:39;;;;;;;33.83;5.20;;;9.10;99.90;;;;;;5013658;28;20046;-84
2022/01/12 12:45:05;;;;;;;23.45;4.65;;;9.10;99.90;;;;;;5015631;28;20043;-84
2022/01/12 12:47:32;;;;;;;29.80;5.57;;;9.10;99.90;;;;;;4999643;28;20038;-84
2022/01/12 12:50:02;;;;;;;27.40;5.28;;;9.20;99.90;;;;;;5015637;28;20088;-84
2022/01/12 12:52:29;;;;;;;35.58;6.05;;;8.90;99.90;;;;;;5012835;28;20461;-86
2022/01/12 12:54:57;;;;;;;32.92;4.93;;;9.10;99.90;;;;;;5012870;28;20048;-84
2022/01/12 12:57:24;;;;;;;26.05;4.75;;;9.50;99.90;;;;;;5020122;28;20083;-84
2022/01/12 13:00:03;;;;;;;33.10;4.25;;;9.00;99.90;;;;;;5035430;28;20383;-83
2022/01/12 13:02:36;;;;;;;22.75;4.80;;;12.60;99.90;;;;;;5035090;28;20055;-84
2022/01/12 13:05:04;;;;;;;27.17;4.30;;;8.90;99.90;;;;;;5019339;28;20041;-87
2022/01/12 13:07:37;;;;;;;30.90;5.57;;;8.90;99.90;;;;;;5052267;28;20053;-86
2022/01/12 13:10:06;;;;;;;30.30;4.63;;;8.80;99.90;;;;;;5035309;28;20124;-87
2022/01/12 13:12:38;;;;;;;26.92;4.97;;;8.80;99.90;;;;;;5052092;28;20052;-85
2022/01/12 13:15:06;;;;;;;18.77;4.22;;;9.70;99.90;;;;;;5035445;28;20051;-85
2022/01/12 13:17:32;;;;;;;25.52;4.13;;;8.80;99.90;;;;;;5035322;28;20048;-86
2022/01/12 13:22:34;;;;;;;32.38;4.45;;;8.90;99.90;;;;;;5035400;28;20108;-85
2022/01/12 13:25:01;;;;;;;;;;;8.80;99.90;;;;;;5035683;28;20593;-86
2022/01/12 13:27:27;;;;;;;30.25;4.22;;;9.40;99.90;;;;;;5018586;28;20380;-85
2022/01/12 13:29:54;;;;;;;28.08;4.80;;;8.80;99.90;;;;;;5034947;28;20037;-84
2022/01/12 13:32:20;;;;;;;33.63;4.65;;;8.90;99.90;;;;;;5018931;28;20076;-84
2022/01/12 13:35:00;;;;;;;33.28;5.00;;;9.30;99.90;;;;;;5034669;28;20044;-84
2022/01/12 13:37:26;;;;;;;25.38;4.30;;;8.90;99.90;;;;;;5027871;28;20049;-85
2022/01/12 13:40:16;;;;;;;24.58;4.45;;;10.80;99.90;;;;;;5033340;28;20050;-84
2022/01/12 13:42:48;;;;;;;23.67;3.95;;;8.90;99.90;;;;;;5028518;28;20061;-84
2022/01/12 13:45:17;;;;;;;33.05;3.90;;;9.70;99.90;;;;;;5017099;28;20052;-84
2022/01/12 13:47:49;;;;;;;36.53;5.63;;;9.00;99.90;;;;;;5034647;28;20037;-84
2022/01/12 13:50:15;;;;;;;24.58;4.15;;;9.00;99.90;;;;;;5035349;28;20055;-84
2022/01/12 13:52:52;;;;;;;27.10;3.90;;;10.70;99.90;;;;;;5015110;28;20073;-85
2022/01/12 13:55:18;;;;;;;23.75;3.53;;;8.90;99.90;;;;;;5015411;28;20064;-84
2022/01/12 13:57:44;;;;;;;21.73;3.75;;;9.00;99.90;;;;;;5031696;28;20053;-87
2022/01/12 14:00:19;;;;;;;25.20;3.22;;;12.20;99.90;;;;;;5015413;28;20111;-86
2022/01/12 14:02:45;;;;;;;22.15;3.60;;;;;;;;;;5015326;28;20037;-86
2022/01/12 14:05:17;;;;;;;23.90;3.28;;;8.90;99.90;;;;;;5034621;28;20390;-86